sensor_id;sensor_type;location;lat;lon;timestamp;P1;durP1;ratioP1;P2;durP2;ratioP2
48578;SDS011;34357;51.948;6.132;2024-03-06T00:01:52;85.32;;;53.03;;
48578;SDS011;34357;51.948;6.132;2024-03-06T00:04:17;89.18;;;52.90;;
48578;SDS011;34357;51.948;6.132;2024-03-06T00:06:43;84.93;;;52.38;;
48578;SDS011;34357;51.948;6.132;2024-03-06T00:09:09;84.63;;;52.15;;
48578;SDS011;34357;51.948;6.132;2024-03-06T00:11:35;89.28;;;51.88;;
48578;SDS011;34357;51.948;6.132;2024-03-06T00:14:03;86.30;;;53.78;;
48578;SDS011;34357;51.948;6.132;2024-03-06T00:16:33;84.25;;;52.78;;
48578;SDS011;34357;51.948;6.132;2024-03-06T00:18:59;90.97;;;53.55;;
48578;SDS011;34357;51.948;6.132;2024-03-06T00:21:25;82.63;;;51.97;;
48578;SDS011;34357;51.948;6.132;2024-03-06T00:23:50;92.43;;;55.10;;
48578;SDS011;34357;51.948;6.132;2024-03-06T00:26:16;92.50;;;56.28;;
48578;SDS011;34357;51.948;6.132;2024-03-06T00:28:42;93.65;;;54.30;;
48578;SDS011;34357;51.948;6.132;2024-03-06T00:31:08;90.30;;;56.67;;
48578;SDS011;34357;51.948;6.132;2024-03-06T00:33:33;96.72;;;54.40;;
48578;SDS011;34357;51.948;6.132;2024-03-06T00:35:59;92.25;;;55.38;;
48578;SDS011;34357;51.948;6.132;2024-03-06T00:38:25;94.47;;;54.75;;
48578;SDS011;34357;51.948;6.132;2024-03-06T00:40:50;93.10;;;55.90;;
48578;SDS011;34357;51.948;6.132;2024-03-06T00:43:16;90.72;;;55.22;;
48578;SDS011;34357;51.948;6.132;2024-03-06T00:45:42;94.47;;;54.72;;
48578;SDS011;34357;51.948;6.132;2024-03-06T00:48:07;90.75;;;56.17;;
48578;SDS011;34357;51.948;6.132;2024-03-06T00:50:33;93.60;;;55.90;;
48578;SDS011;34357;51.948;6.132;2024-03-06T00:52:59;93.75;;;55.65;;
48578;SDS011;34357;51.948;6.132;2024-03-06T00:55:24;92.80;;;55.22;;
48578;SDS011;34357;51.948;6.132;2024-03-06T00:57:50;95.85;;;55.50;;
48578;SDS011;34357;51.948;6.132;2024-03-06T01:00:16;84.95;;;53.60;;
48578;SDS011;34357;51.948;6.132;2024-03-06T01:02:42;91.35;;;53.33;;
48578;SDS011;34357;51.948;6.132;2024-03-06T01:05:08;91.28;;;55.03;;
48578;SDS011;34357;51.948;6.132;2024-03-06T01:07:34;94.38;;;55.03;;
48578;SDS011;34357;51.948;6.132;2024-03-06T01:10:03;93.30;;;54.25;;
48578;SDS011;34357;51.948;6.132;2024-03-06T01:12:32;93.03;;;54.83;;
48578;SDS011;34357;51.948;6.132;2024-03-06T01:14:58;94.75;;;55.83;;
48578;SDS011;34357;51.948;6.132;2024-03-06T01:17:23;98.40;;;57.20;;
48578;SDS011;34357;51.948;6.132;2024-03-06T01:19:49;98.60;;;58.92;;
48578;SDS011;34357;51.948;6.132;2024-03-06T01:22:15;103.80;;;60.22;;
48578;SDS011;34357;51.948;6.132;2024-03-06T01:24:41;95.32;;;58.50;;
48578;SDS011;34357;51.948;6.132;2024-03-06T01:27:07;97.07;;;58.33;;
48578;SDS011;34357;51.948;6.132;2024-03-06T01:29:33;103.38;;;58.55;;
48578;SDS011;34357;51.948;6.132;2024-03-06T01:31:59;111.68;;;60.88;;
48578;SDS011;34357;51.948;6.132;2024-03-06T01:34:25;102.43;;;58.15;;
48578;SDS011;34357;51.948;6.132;2024-03-06T01:36:51;102.35;;;57.42;;
48578;SDS011;34357;51.948;6.132;2024-03-06T01:39:17;97.25;;;56.90;;
48578;SDS011;34357;51.948;6.132;2024-03-06T01:41:46;97.30;;;57.63;;
48578;SDS011;34357;51.948;6.132;2024-03-06T01:44:16;97.88;;;57.90;;
48578;SDS011;34357;51.948;6.132;2024-03-06T01:46:46;100.53;;;57.05;;
48578;SDS011;34357;51.948;6.132;2024-03-06T01:49:12;109.55;;;60.00;;
48578;SDS011;34357;51.948;6.132;2024-03-06T01:51:40;102.78;;;59.33;;
48578;SDS011;34357;51.948;6.132;2024-03-06T01:54:08;104.88;;;62.65;;
48578;SDS011;34357;51.948;6.132;2024-03-06T01:56:35;104.70;;;60.05;;
48578;SDS011;34357;51.948;6.132;2024-03-06T01:59:02;105.25;;;60.47;;
48578;SDS011;34357;51.948;6.132;2024-03-06T02:01:29;103.22;;;60.17;;
48578;SDS011;34357;51.948;6.132;2024-03-06T02:03:57;99.95;;;57.67;;
48578;SDS011;34357;51.948;6.132;2024-03-06T02:06:23;104.63;;;59.85;;
48578;SDS011;34357;51.948;6.132;2024-03-06T02:08:49;116.78;;;61.95;;
48578;SDS011;34357;51.948;6.132;2024-03-06T02:11:16;98.65;;;59.05;;
48578;SDS011;34357;51.948;6.132;2024-03-06T02:13:42;97.97;;;60.28;;
48578;SDS011;34357;51.948;6.132;2024-03-06T02:16:11;115.00;;;60.13;;
48578;SDS011;34357;51.948;6.132;2024-03-06T02:18:37;106.97;;;59.85;;
48578;SDS011;34357;51.948;6.132;2024-03-06T02:21:15;106.50;;;61.03;;
48578;SDS011;34357;51.948;6.132;2024-03-06T02:23:41;104.13;;;61.30;;
48578;SDS011;34357;51.948;6.132;2024-03-06T02:26:07;120.13;;;63.33;;
48578;SDS011;34357;51.948;6.132;2024-03-06T02:28:33;116.68;;;64.80;;
48578;SDS011;34357;51.948;6.132;2024-03-06T02:31:00;106.55;;;61.42;;
48578;SDS011;34357;51.948;6.132;2024-03-06T02:33:27;110.25;;;62.75;;
48578;SDS011;34357;51.948;6.132;2024-03-06T02:35:52;111.35;;;62.42;;
48578;SDS011;34357;51.948;6.132;2024-03-06T02:38:18;124.50;;;64.40;;
48578;SDS011;34357;51.948;6.132;2024-03-06T02:40:44;109.43;;;62.33;;
48578;SDS011;34357;51.948;6.132;2024-03-06T02:43:10;113.43;;;62.47;;
48578;SDS011;34357;51.948;6.132;2024-03-06T02:45:35;120.13;;;66.07;;
48578;SDS011;34357;51.948;6.132;2024-03-06T02:48:01;120.82;;;66.55;;
48578;SDS011;34357;51.948;6.132;2024-03-06T02:50:27;121.28;;;64.80;;
48578;SDS011;34357;51.948;6.132;2024-03-06T02:52:53;111.00;;;64.57;;
48578;SDS011;34357;51.948;6.132;2024-03-06T02:55:18;117.65;;;66.13;;
48578;SDS011;34357;51.948;6.132;2024-03-06T02:57:44;120.57;;;63.80;;
48578;SDS011;34357;51.948;6.132;2024-03-06T03:00:10;103.22;;;60.50;;
48578;SDS011;34357;51.948;6.132;2024-03-06T03:02:38;88.22;;;53.85;;
48578;SDS011;34357;51.948;6.132;2024-03-06T03:05:05;86.68;;;53.22;;
48578;SDS011;34357;51.948;6.132;2024-03-06T03:07:31;60.63;;;38.67;;
48578;SDS011;34357;51.948;6.132;2024-03-06T03:09:57;179.80;;;41.95;;
48578;SDS011;34357;51.948;6.132;2024-03-06T03:12:22;179.07;;;38.83;;
48578;SDS011;34357;51.948;6.132;2024-03-06T03:14:48;95.13;;;36.17;;
48578;SDS011;34357;51.948;6.132;2024-03-06T03:17:14;110.65;;;35.13;;
48578;SDS011;34357;51.948;6.132;2024-03-06T03:19:40;58.97;;;32.13;;
48578;SDS011;34357;51.948;6.132;2024-03-06T03:22:06;69.82;;;32.55;;
48578;SDS011;34357;51.948;6.132;2024-03-06T03:24:33;96.90;;;32.85;;
48578;SDS011;34357;51.948;6.132;2024-03-06T03:26:58;97.22;;;34.33;;
48578;SDS011;34357;51.948;6.132;2024-03-06T03:29:24;58.78;;;33.72;;
48578;SDS011;34357;51.948;6.132;2024-03-06T03:31:50;209.13;;;37.67;;
48578;SDS011;34357;51.948;6.132;2024-03-06T03:34:16;391.67;;;41.72;;
48578;SDS011;34357;51.948;6.132;2024-03-06T03:36:42;463.92;;;48.63;;
48578;SDS011;34357;51.948;6.132;2024-03-06T03:39:09;530.72;;;53.22;;
48578;SDS011;34357;51.948;6.132;2024-03-06T03:41:44;350.75;;;47.55;;
48578;SDS011;34357;51.948;6.132;2024-03-06T03:44:14;344.98;;;48.90;;
48578;SDS011;34357;51.948;6.132;2024-03-06T03:46:40;379.30;;;49.00;;
48578;SDS011;34357;51.948;6.132;2024-03-06T03:49:07;354.63;;;49.67;;
48578;SDS011;34357;51.948;6.132;2024-03-06T03:51:34;394.50;;;47.72;;
48578;SDS011;34357;51.948;6.132;2024-03-06T03:54:01;236.25;;;43.00;;
48578;SDS011;34357;51.948;6.132;2024-03-06T03:56:27;357.67;;;47.15;;
48578;SDS011;34357;51.948;6.132;2024-03-06T03:58:53;310.60;;;45.83;;
48578;SDS011;34357;51.948;6.132;2024-03-06T04:01:18;361.33;;;46.03;;
48578;SDS011;34357;51.948;6.132;2024-03-06T04:03:44;278.67;;;46.70;;
48578;SDS011;34357;51.948;6.132;2024-03-06T04:06:10;279.73;;;43.70;;
48578;SDS011;34357;51.948;6.132;2024-03-06T04:08:36;402.00;;;49.55;;
48578;SDS011;34357;51.948;6.132;2024-03-06T04:11:03;333.13;;;49.58;;
48578;SDS011;34357;51.948;6.132;2024-03-06T04:13:29;188.20;;;44.08;;
48578;SDS011;34357;51.948;6.132;2024-03-06T04:15:55;158.57;;;42.75;;
48578;SDS011;34357;51.948;6.132;2024-03-06T04:18:21;88.70;;;38.45;;
48578;SDS011;34357;51.948;6.132;2024-03-06T04:20:47;303.85;;;46.65;;
48578;SDS011;34357;51.948;6.132;2024-03-06T04:23:12;287.92;;;47.20;;
48578;SDS011;34357;51.948;6.132;2024-03-06T04:25:38;280.30;;;49.42;;
48578;SDS011;34357;51.948;6.132;2024-03-06T04:28:05;279.67;;;50.53;;
48578;SDS011;34357;51.948;6.132;2024-03-06T04:30:33;353.02;;;52.33;;
48578;SDS011;34357;51.948;6.132;2024-03-06T04:32:59;327.35;;;52.40;;
48578;SDS011;34357;51.948;6.132;2024-03-06T04:35:24;141.32;;;49.25;;
48578;SDS011;34357;51.948;6.132;2024-03-06T04:37:50;60.20;;;42.05;;
48578;SDS011;34357;51.948;6.132;2024-03-06T04:40:16;76.63;;;44.42;;
48578;SDS011;34357;51.948;6.132;2024-03-06T04:42:45;535.38;;;56.92;;
48578;SDS011;34357;51.948;6.132;2024-03-06T04:45:14;321.63;;;55.08;;
48578;SDS011;34357;51.948;6.132;2024-03-06T04:47:41;396.98;;;59.72;;
48578;SDS011;34357;51.948;6.132;2024-03-06T04:50:10;630.60;;;72.70;;
48578;SDS011;34357;51.948;6.132;2024-03-06T04:52:37;229.95;;;50.92;;
48578;SDS011;34357;51.948;6.132;2024-03-06T04:55:03;141.73;;;48.28;;
48578;SDS011;34357;51.948;6.132;2024-03-06T04:57:30;111.13;;;46.58;;
48578;SDS011;34357;51.948;6.132;2024-03-06T04:59:55;131.07;;;48.38;;
48578;SDS011;34357;51.948;6.132;2024-03-06T05:02:23;112.07;;;47.33;;
48578;SDS011;34357;51.948;6.132;2024-03-06T05:04:50;200.98;;;50.67;;
48578;SDS011;34357;51.948;6.132;2024-03-06T05:07:17;401.70;;;64.30;;
48578;SDS011;34357;51.948;6.132;2024-03-06T05:09:42;150.35;;;52.53;;
48578;SDS011;34357;51.948;6.132;2024-03-06T05:12:08;156.18;;;52.45;;
48578;SDS011;34357;51.948;6.132;2024-03-06T05:14:34;352.85;;;62.35;;
48578;SDS011;34357;51.948;6.132;2024-03-06T05:16:59;349.15;;;64.25;;
48578;SDS011;34357;51.948;6.132;2024-03-06T05:19:25;571.90;;;81.10;;
48578;SDS011;34357;51.948;6.132;2024-03-06T05:22:00;211.85;;;56.72;;
48578;SDS011;34357;51.948;6.132;2024-03-06T05:24:25;177.30;;;57.10;;
48578;SDS011;34357;51.948;6.132;2024-03-06T05:26:51;443.17;;;64.20;;
48578;SDS011;34357;51.948;6.132;2024-03-06T05:29:17;203.00;;;59.00;;
48578;SDS011;34357;51.948;6.132;2024-03-06T05:31:43;171.15;;;56.42;;
48578;SDS011;34357;51.948;6.132;2024-03-06T05:34:08;116.90;;;52.83;;
48578;SDS011;34357;51.948;6.132;2024-03-06T05:36:34;109.13;;;52.65;;
48578;SDS011;34357;51.948;6.132;2024-03-06T05:39:00;236.52;;;58.22;;
48578;SDS011;34357;51.948;6.132;2024-03-06T05:41:26;115.03;;;52.72;;
48578;SDS011;34357;51.948;6.132;2024-03-06T05:43:51;114.30;;;53.72;;
48578;SDS011;34357;51.948;6.132;2024-03-06T05:46:17;137.55;;;56.17;;
48578;SDS011;34357;51.948;6.132;2024-03-06T05:48:44;130.10;;;55.67;;
48578;SDS011;34357;51.948;6.132;2024-03-06T05:51:10;142.98;;;58.28;;
48578;SDS011;34357;51.948;6.132;2024-03-06T05:53:39;121.55;;;55.53;;
48578;SDS011;34357;51.948;6.132;2024-03-06T05:56:07;91.97;;;55.15;;
48578;SDS011;34357;51.948;6.132;2024-03-06T05:58:33;136.85;;;56.78;;
48578;SDS011;34357;51.948;6.132;2024-03-06T06:01:02;200.20;;;57.38;;
48578;SDS011;34357;51.948;6.132;2024-03-06T06:03:29;150.80;;;56.38;;
48578;SDS011;34357;51.948;6.132;2024-03-06T06:05:55;134.27;;;55.80;;
48578;SDS011;34357;51.948;6.132;2024-03-06T06:08:21;155.85;;;57.25;;
48578;SDS011;34357;51.948;6.132;2024-03-06T06:10:47;156.32;;;57.03;;
48578;SDS011;34357;51.948;6.132;2024-03-06T06:13:16;206.73;;;60.80;;
48578;SDS011;34357;51.948;6.132;2024-03-06T06:15:42;345.80;;;65.53;;
48578;SDS011;34357;51.948;6.132;2024-03-06T06:18:08;213.38;;;59.50;;
48578;SDS011;34357;51.948;6.132;2024-03-06T06:20:34;190.30;;;58.72;;
48578;SDS011;34357;51.948;6.132;2024-03-06T06:23:00;257.65;;;62.63;;
48578;SDS011;34357;51.948;6.132;2024-03-06T06:25:26;109.60;;;59.42;;
48578;SDS011;34357;51.948;6.132;2024-03-06T06:27:52;89.88;;;55.45;;
48578;SDS011;34357;51.948;6.132;2024-03-06T06:30:17;186.70;;;57.17;;
48578;SDS011;34357;51.948;6.132;2024-03-06T06:32:44;111.07;;;53.70;;
48578;SDS011;34357;51.948;6.132;2024-03-06T06:35:10;97.03;;;53.53;;
48578;SDS011;34357;51.948;6.132;2024-03-06T06:37:39;360.60;;;60.50;;
48578;SDS011;34357;51.948;6.132;2024-03-06T06:40:06;83.57;;;54.45;;
48578;SDS011;34357;51.948;6.132;2024-03-06T06:42:33;89.03;;;53.92;;
48578;SDS011;34357;51.948;6.132;2024-03-06T06:45:01;75.93;;;53.00;;
48578;SDS011;34357;51.948;6.132;2024-03-06T06:47:28;75.35;;;53.28;;
48578;SDS011;34357;51.948;6.132;2024-03-06T06:49:54;146.38;;;53.33;;
48578;SDS011;34357;51.948;6.132;2024-03-06T06:52:19;131.15;;;51.83;;
48578;SDS011;34357;51.948;6.132;2024-03-06T06:54:46;77.72;;;52.15;;
48578;SDS011;34357;51.948;6.132;2024-03-06T06:57:11;122.30;;;52.10;;
48578;SDS011;34357;51.948;6.132;2024-03-06T06:59:37;79.03;;;46.88;;
48578;SDS011;34357;51.948;6.132;2024-03-06T07:02:03;76.10;;;48.03;;
48578;SDS011;34357;51.948;6.132;2024-03-06T07:04:29;100.70;;;49.17;;
48578;SDS011;34357;51.948;6.132;2024-03-06T07:06:54;187.25;;;54.15;;
48578;SDS011;34357;51.948;6.132;2024-03-06T07:09:20;104.80;;;50.17;;
48578;SDS011;34357;51.948;6.132;2024-03-06T07:11:46;91.03;;;52.00;;
48578;SDS011;34357;51.948;6.132;2024-03-06T07:14:12;72.97;;;49.53;;
48578;SDS011;34357;51.948;6.132;2024-03-06T07:16:41;84.85;;;52.58;;
48578;SDS011;34357;51.948;6.132;2024-03-06T07:19:08;80.40;;;50.40;;
48578;SDS011;34357;51.948;6.132;2024-03-06T07:21:34;76.75;;;51.50;;
48578;SDS011;34357;51.948;6.132;2024-03-06T07:23:59;73.13;;;48.10;;
48578;SDS011;34357;51.948;6.132;2024-03-06T07:26:25;72.32;;;51.90;;
48578;SDS011;34357;51.948;6.132;2024-03-06T07:28:51;74.38;;;53.35;;
48578;SDS011;34357;51.948;6.132;2024-03-06T07:31:18;70.88;;;50.97;;
48578;SDS011;34357;51.948;6.132;2024-03-06T07:33:44;78.25;;;50.03;;
48578;SDS011;34357;51.948;6.132;2024-03-06T07:36:09;104.90;;;45.92;;
48578;SDS011;34357;51.948;6.132;2024-03-06T07:38:35;94.70;;;46.38;;
48578;SDS011;34357;51.948;6.132;2024-03-06T07:41:01;91.20;;;48.03;;
48578;SDS011;34357;51.948;6.132;2024-03-06T07:43:26;68.90;;;47.75;;
48578;SDS011;34357;51.948;6.132;2024-03-06T07:45:52;120.00;;;52.40;;
48578;SDS011;34357;51.948;6.132;2024-03-06T07:48:18;100.05;;;46.67;;
48578;SDS011;34357;51.948;6.132;2024-03-06T07:50:44;91.82;;;48.15;;
48578;SDS011;34357;51.948;6.132;2024-03-06T07:53:10;130.77;;;49.35;;
48578;SDS011;34357;51.948;6.132;2024-03-06T07:55:36;64.82;;;47.78;;
48578;SDS011;34357;51.948;6.132;2024-03-06T07:58:04;63.58;;;46.25;;
48578;SDS011;34357;51.948;6.132;2024-03-06T08:00:30;70.72;;;45.45;;
48578;SDS011;34357;51.948;6.132;2024-03-06T08:02:56;84.82;;;46.55;;
48578;SDS011;34357;51.948;6.132;2024-03-06T08:05:22;62.08;;;49.72;;
48578;SDS011;34357;51.948;6.132;2024-03-06T08:07:48;56.17;;;46.53;;
48578;SDS011;34357;51.948;6.132;2024-03-06T08:10:14;55.60;;;45.63;;
48578;SDS011;34357;51.948;6.132;2024-03-06T08:12:42;56.42;;;44.92;;
48578;SDS011;34357;51.948;6.132;2024-03-06T08:15:12;55.20;;;40.75;;
48578;SDS011;34357;51.948;6.132;2024-03-06T08:17:40;56.38;;;43.38;;
48578;SDS011;34357;51.948;6.132;2024-03-06T08:20:08;55.78;;;41.50;;
48578;SDS011;34357;51.948;6.132;2024-03-06T08:22:36;50.92;;;41.15;;
48578;SDS011;34357;51.948;6.132;2024-03-06T08:25:10;53.13;;;42.42;;
48578;SDS011;34357;51.948;6.132;2024-03-06T08:27:38;59.80;;;45.95;;
48578;SDS011;34357;51.948;6.132;2024-03-06T08:30:06;54.85;;;43.58;;
48578;SDS011;34357;51.948;6.132;2024-03-06T08:32:33;52.75;;;39.70;;
48578;SDS011;34357;51.948;6.132;2024-03-06T08:35:08;50.53;;;37.20;;
48578;SDS011;34357;51.948;6.132;2024-03-06T08:37:38;60.67;;;40.97;;
48578;SDS011;34357;51.948;6.132;2024-03-06T08:40:05;58.08;;;38.53;;
48578;SDS011;34357;51.948;6.132;2024-03-06T08:42:40;53.15;;;38.70;;
48578;SDS011;34357;51.948;6.132;2024-03-06T08:45:07;57.10;;;39.15;;
48578;SDS011;34357;51.948;6.132;2024-03-06T08:47:34;91.32;;;46.22;;
48578;SDS011;34357;51.948;6.132;2024-03-06T08:50:00;240.75;;;50.42;;
48578;SDS011;34357;51.948;6.132;2024-03-06T08:52:27;140.25;;;50.83;;
48578;SDS011;34357;51.948;6.132;2024-03-06T08:54:53;133.00;;;51.13;;
48578;SDS011;34357;51.948;6.132;2024-03-06T08:57:19;137.15;;;52.75;;
48578;SDS011;34357;51.948;6.132;2024-03-06T08:59:49;156.02;;;52.50;;
48578;SDS011;34357;51.948;6.132;2024-03-06T09:02:18;242.63;;;56.05;;
48578;SDS011;34357;51.948;6.132;2024-03-06T09:04:47;137.25;;;57.50;;
48578;SDS011;34357;51.948;6.132;2024-03-06T09:07:13;278.50;;;59.53;;
48578;SDS011;34357;51.948;6.132;2024-03-06T09:09:39;181.15;;;59.53;;
48578;SDS011;34357;51.948;6.132;2024-03-06T09:12:06;178.27;;;62.45;;
48578;SDS011;34357;51.948;6.132;2024-03-06T09:14:35;226.82;;;62.65;;
48578;SDS011;34357;51.948;6.132;2024-03-06T09:17:02;243.77;;;69.53;;
48578;SDS011;34357;51.948;6.132;2024-03-06T09:19:29;165.13;;;68.03;;
48578;SDS011;34357;51.948;6.132;2024-03-06T09:21:55;160.35;;;66.88;;
48578;SDS011;34357;51.948;6.132;2024-03-06T09:24:21;152.40;;;67.38;;
48578;SDS011;34357;51.948;6.132;2024-03-06T09:26:53;161.18;;;66.50;;
48578;SDS011;34357;51.948;6.132;2024-03-06T09:29:19;165.60;;;67.65;;
48578;SDS011;34357;51.948;6.132;2024-03-06T09:31:46;136.63;;;63.53;;
48578;SDS011;34357;51.948;6.132;2024-03-06T09:34:15;149.00;;;67.00;;
48578;SDS011;34357;51.948;6.132;2024-03-06T09:36:47;147.75;;;66.68;;
48578;SDS011;34357;51.948;6.132;2024-03-06T09:39:14;154.35;;;67.00;;
48578;SDS011;34357;51.948;6.132;2024-03-06T09:41:50;145.45;;;67.43;;
48578;SDS011;34357;51.948;6.132;2024-03-06T09:44:16;146.13;;;67.93;;
48578;SDS011;34357;51.948;6.132;2024-03-06T09:46:43;155.60;;;69.22;;
48578;SDS011;34357;51.948;6.132;2024-03-06T09:49:13;163.82;;;72.72;;
48578;SDS011;34357;51.948;6.132;2024-03-06T09:51:44;157.52;;;69.20;;
48578;SDS011;34357;51.948;6.132;2024-03-06T09:54:18;148.48;;;67.32;;
48578;SDS011;34357;51.948;6.132;2024-03-06T09:56:45;145.23;;;67.70;;
48578;SDS011;34357;51.948;6.132;2024-03-06T09:59:13;140.75;;;67.30;;
48578;SDS011;34357;51.948;6.132;2024-03-06T10:02:01;131.85;;;64.40;;
48578;SDS011;34357;51.948;6.132;2024-03-06T10:04:32;124.63;;;61.03;;
48578;SDS011;34357;51.948;6.132;2024-03-06T10:06:59;128.30;;;63.95;;
48578;SDS011;34357;51.948;6.132;2024-03-06T10:09:27;127.75;;;63.17;;
48578;SDS011;34357;51.948;6.132;2024-03-06T10:11:54;127.63;;;65.07;;
48578;SDS011;34357;51.948;6.132;2024-03-06T10:14:23;126.97;;;65.28;;
48578;SDS011;34357;51.948;6.132;2024-03-06T10:16:55;119.78;;;62.55;;
48578;SDS011;34357;51.948;6.132;2024-03-06T10:19:22;120.40;;;62.65;;
48578;SDS011;34357;51.948;6.132;2024-03-06T10:21:49;110.03;;;57.15;;
48578;SDS011;34357;51.948;6.132;2024-03-06T10:24:34;102.38;;;56.03;;
48578;SDS011;34357;51.948;6.132;2024-03-06T10:27:00;102.00;;;54.85;;
48578;SDS011;34357;51.948;6.132;2024-03-06T10:29:27;102.25;;;55.97;;
48578;SDS011;34357;51.948;6.132;2024-03-06T10:31:54;101.13;;;54.83;;
48578;SDS011;34357;51.948;6.132;2024-03-06T10:34:23;96.53;;;53.83;;
48578;SDS011;34357;51.948;6.132;2024-03-06T10:36:54;99.85;;;54.72;;
48578;SDS011;34357;51.948;6.132;2024-03-06T10:39:21;102.30;;;53.05;;
48578;SDS011;34357;51.948;6.132;2024-03-06T10:41:54;100.55;;;54.90;;
48578;SDS011;34357;51.948;6.132;2024-03-06T10:44:24;87.78;;;50.08;;
48578;SDS011;34357;51.948;6.132;2024-03-06T10:47:01;93.30;;;51.97;;
48578;SDS011;34357;51.948;6.132;2024-03-06T10:49:28;93.82;;;52.22;;
48578;SDS011;34357;51.948;6.132;2024-03-06T10:51:59;91.53;;;52.00;;
48578;SDS011;34357;51.948;6.132;2024-03-06T10:54:29;91.20;;;51.15;;
48578;SDS011;34357;51.948;6.132;2024-03-06T10:56:56;100.57;;;53.55;;
48578;SDS011;34357;51.948;6.132;2024-03-06T10:59:25;95.03;;;52.20;;
48578;SDS011;34357;51.948;6.132;2024-03-06T11:01:53;99.55;;;52.40;;
48578;SDS011;34357;51.948;6.132;2024-03-06T11:04:21;93.90;;;52.95;;
48578;SDS011;34357;51.948;6.132;2024-03-06T11:06:56;105.13;;;54.55;;
48578;SDS011;34357;51.948;6.132;2024-03-06T11:09:25;94.40;;;51.22;;
48578;SDS011;34357;51.948;6.132;2024-03-06T11:11:57;98.13;;;51.85;;
48578;SDS011;34357;51.948;6.132;2024-03-06T11:14:23;97.40;;;50.90;;
48578;SDS011;34357;51.948;6.132;2024-03-06T11:17:05;94.72;;;50.95;;
48578;SDS011;34357;51.948;6.132;2024-03-06T11:20:18;94.57;;;51.63;;
48578;SDS011;34357;51.948;6.132;2024-03-06T11:28:19;94.93;;;51.55;;
48578;SDS011;34357;51.948;6.132;2024-03-06T11:31:09;94.43;;;52.10;;
48578;SDS011;34357;51.948;6.132;2024-03-06T11:33:46;95.13;;;52.03;;
48578;SDS011;34357;51.948;6.132;2024-03-06T11:38:51;88.38;;;50.67;;
48578;SDS011;34357;51.948;6.132;2024-03-06T11:41:28;85.47;;;48.45;;
48578;SDS011;34357;51.948;6.132;2024-03-06T11:43:59;85.03;;;48.65;;
48578;SDS011;34357;51.948;6.132;2024-03-06T11:46:44;83.07;;;47.13;;
48578;SDS011;34357;51.948;6.132;2024-03-06T11:49:29;86.32;;;48.85;;
48578;SDS011;34357;51.948;6.132;2024-03-06T11:52:06;81.25;;;48.08;;
48578;SDS011;34357;51.948;6.132;2024-03-06T11:54:33;90.75;;;51.85;;
48578;SDS011;34357;51.948;6.132;2024-03-06T11:57:03;89.75;;;50.08;;
48578;SDS011;34357;51.948;6.132;2024-03-06T11:59:31;92.00;;;51.80;;
48578;SDS011;34357;51.948;6.132;2024-03-06T12:01:58;87.88;;;49.45;;
48578;SDS011;34357;51.948;6.132;2024-03-06T12:04:28;88.90;;;50.10;;
48578;SDS011;34357;51.948;6.132;2024-03-06T12:06:59;92.82;;;52.75;;
48578;SDS011;34357;51.948;6.132;2024-03-06T12:09:26;92.03;;;52.67;;
48578;SDS011;34357;51.948;6.132;2024-03-06T12:11:52;96.00;;;53.40;;
48578;SDS011;34357;51.948;6.132;2024-03-06T12:14:18;91.35;;;52.10;;
48578;SDS011;34357;51.948;6.132;2024-03-06T12:16:57;93.32;;;54.00;;
48578;SDS011;34357;51.948;6.132;2024-03-06T12:19:27;92.43;;;52.88;;
48578;SDS011;34357;51.948;6.132;2024-03-06T12:21:55;94.30;;;53.07;;
48578;SDS011;34357;51.948;6.132;2024-03-06T12:24:21;97.50;;;54.97;;
48578;SDS011;34357;51.948;6.132;2024-03-06T12:26:46;100.90;;;55.90;;
48578;SDS011;34357;51.948;6.132;2024-03-06T12:29:27;92.07;;;53.65;;
48578;SDS011;34357;51.948;6.132;2024-03-06T12:31:55;92.25;;;52.67;;
48578;SDS011;34357;51.948;6.132;2024-03-06T12:34:22;83.88;;;50.13;;
48578;SDS011;34357;51.948;6.132;2024-03-06T12:36:48;87.00;;;50.25;;
48578;SDS011;34357;51.948;6.132;2024-03-06T12:39:15;89.30;;;52.15;;
48578;SDS011;34357;51.948;6.132;2024-03-06T12:41:43;91.68;;;51.30;;
48578;SDS011;34357;51.948;6.132;2024-03-06T12:44:09;85.28;;;49.13;;
48578;SDS011;34357;51.948;6.132;2024-03-06T12:46:35;85.50;;;50.70;;
48578;SDS011;34357;51.948;6.132;2024-03-06T12:49:01;90.32;;;52.20;;
48578;SDS011;34357;51.948;6.132;2024-03-06T12:51:27;84.43;;;52.28;;
48578;SDS011;34357;51.948;6.132;2024-03-06T12:53:52;83.97;;;51.13;;
48578;SDS011;34357;51.948;6.132;2024-03-06T12:56:18;81.47;;;48.97;;
48578;SDS011;34357;51.948;6.132;2024-03-06T12:58:45;81.53;;;48.10;;
48578;SDS011;34357;51.948;6.132;2024-03-06T13:01:11;82.82;;;48.95;;
48578;SDS011;34357;51.948;6.132;2024-03-06T13:03:37;70.35;;;43.65;;
48578;SDS011;34357;51.948;6.132;2024-03-06T13:06:03;67.13;;;41.70;;
48578;SDS011;34357;51.948;6.132;2024-03-06T13:08:33;64.70;;;40.40;;
48578;SDS011;34357;51.948;6.132;2024-03-06T13:10:58;60.00;;;37.58;;
48578;SDS011;34357;51.948;6.132;2024-03-06T13:13:24;59.85;;;39.40;;
48578;SDS011;34357;51.948;6.132;2024-03-06T13:15:51;59.53;;;38.28;;
48578;SDS011;34357;51.948;6.132;2024-03-06T13:18:17;63.78;;;39.78;;
48578;SDS011;34357;51.948;6.132;2024-03-06T13:20:43;56.90;;;37.30;;
48578;SDS011;34357;51.948;6.132;2024-03-06T13:23:09;56.33;;;33.60;;
48578;SDS011;34357;51.948;6.132;2024-03-06T13:25:35;55.50;;;34.38;;
48578;SDS011;34357;51.948;6.132;2024-03-06T13:28:01;46.53;;;27.77;;
48578;SDS011;34357;51.948;6.132;2024-03-06T13:30:28;57.40;;;35.15;;
48578;SDS011;34357;51.948;6.132;2024-03-06T13:32:54;51.95;;;30.23;;
48578;SDS011;34357;51.948;6.132;2024-03-06T13:35:20;49.72;;;30.75;;
48578;SDS011;34357;51.948;6.132;2024-03-06T13:37:46;36.28;;;22.90;;
48578;SDS011;34357;51.948;6.132;2024-03-06T13:40:12;26.75;;;17.95;;
48578;SDS011;34357;51.948;6.132;2024-03-06T13:42:38;36.67;;;22.48;;
48578;SDS011;34357;51.948;6.132;2024-03-06T13:45:05;29.50;;;17.73;;
48578;SDS011;34357;51.948;6.132;2024-03-06T13:47:38;19.00;;;12.15;;
48578;SDS011;34357;51.948;6.132;2024-03-06T13:50:06;28.35;;;18.08;;
48578;SDS011;34357;51.948;6.132;2024-03-06T13:52:33;35.15;;;20.42;;
48578;SDS011;34357;51.948;6.132;2024-03-06T13:54:59;43.45;;;26.33;;
48578;SDS011;34357;51.948;6.132;2024-03-06T13:57:27;29.10;;;19.58;;
48578;SDS011;34357;51.948;6.132;2024-03-06T13:59:54;30.65;;;19.42;;
48578;SDS011;34357;51.948;6.132;2024-03-06T14:02:19;21.88;;;15.75;;
48578;SDS011;34357;51.948;6.132;2024-03-06T14:04:46;23.80;;;14.82;;
48578;SDS011;34357;51.948;6.132;2024-03-06T14:07:11;20.38;;;13.32;;
48578;SDS011;34357;51.948;6.132;2024-03-06T14:09:37;29.40;;;19.67;;
48578;SDS011;34357;51.948;6.132;2024-03-06T14:12:04;34.10;;;22.73;;
48578;SDS011;34357;51.948;6.132;2024-03-06T14:14:30;35.35;;;24.35;;
48578;SDS011;34357;51.948;6.132;2024-03-06T14:16:55;37.17;;;23.63;;
48578;SDS011;34357;51.948;6.132;2024-03-06T14:19:21;34.28;;;21.13;;
48578;SDS011;34357;51.948;6.132;2024-03-06T14:21:47;30.98;;;20.52;;
48578;SDS011;34357;51.948;6.132;2024-03-06T14:24:13;37.20;;;24.35;;
48578;SDS011;34357;51.948;6.132;2024-03-06T14:26:39;38.92;;;23.63;;